createdAt,value
2023-01-15T00:02:17.414Z,1.80
2023-01-15T00:04:44.515Z,1.90
2023-01-15T00:07:11.398Z,2.00
2023-01-15T00:09:38.283Z,1.80
2023-01-15T00:12:05.430Z,2.10
2023-01-15T00:14:32.275Z,1.90
2023-01-15T00:16:59.137Z,1.83
2023-01-15T00:19:26.098Z,2.10
2023-01-15T00:21:54.377Z,2.20
2023-01-15T00:24:39.703Z,2.08
2023-01-15T00:27:25.094Z,2.25
2023-01-15T00:29:51.974Z,2.30
2023-01-15T00:32:18.813Z,2.42
2023-01-15T00:34:45.737Z,2.55
2023-01-15T00:37:12.557Z,2.38
2023-01-15T00:39:39.459Z,2.47
2023-01-15T00:42:06.346Z,2.33
2023-01-15T00:44:33.901Z,2.60
2023-01-15T00:47:01.186Z,2.42
2023-01-15T00:49:28.203Z,2.70
2023-01-15T00:51:55.116Z,2.40
2023-01-15T00:54:22.243Z,2.55
2023-01-15T00:56:49.120Z,2.33
2023-01-15T00:59:15.980Z,2.38
2023-01-15T01:01:42.900Z,2.43
2023-01-15T01:04:09.914Z,2.08
2023-01-15T01:06:36.782Z,2.10
2023-01-15T01:09:03.756Z,2.13
2023-01-15T01:11:34.470Z,2.03
2023-01-15T01:14:02.939Z,2.00
2023-01-15T01:16:35.796Z,2.38
2023-01-15T01:19:05.708Z,2.30
2023-01-15T01:21:33.072Z,2.22
2023-01-15T01:24:01.300Z,2.20
2023-01-15T01:26:29.756Z,2.45
2023-01-15T01:28:57.476Z,2.47
2023-01-15T01:31:25.092Z,2.35
2023-01-15T01:33:55.535Z,2.25
2023-01-15T01:36:31.355Z,2.45
2023-01-15T01:38:58.906Z,2.20
2023-01-15T01:41:26.222Z,1.95
2023-01-15T01:43:57.421Z,2.28
2023-01-15T01:46:25.485Z,2.25
2023-01-15T01:48:57.645Z,2.13
2023-01-15T01:51:28.849Z,2.60
2023-01-15T01:53:57.702Z,2.80
2023-01-15T01:56:24.826Z,2.50
2023-01-15T01:58:54.010Z,2.33
2023-01-15T02:01:24.408Z,2.33
2023-01-15T02:03:52.612Z,2.15
2023-01-15T02:06:19.664Z,2.10
2023-01-15T02:08:47.697Z,2.47
2023-01-15T02:11:19.259Z,2.60
2023-01-15T02:14:16.581Z,2.70
2023-01-15T02:17:06.128Z,2.30
2023-01-15T02:19:52.596Z,2.00
2023-01-15T02:28:39.155Z,2.42
2023-01-15T02:36:45.427Z,2.38
2023-01-15T02:39:16.038Z,2.40
2023-01-15T02:44:39.195Z,2.30
2023-01-15T02:52:59.264Z,2.00
2023-01-15T02:58:27.462Z,2.50
2023-01-15T03:01:10.795Z,2.30
2023-01-15T03:03:56.711Z,2.20
2023-01-15T03:17:56.091Z,2.13
2023-01-15T03:20:29.131Z,2.10
2023-01-15T03:23:05.342Z,2.07
2023-01-15T03:25:37.898Z,2.22
2023-01-15T03:28:07.224Z,2.13
2023-01-15T03:30:34.405Z,2.28
2023-01-15T03:33:01.314Z,2.38
2023-01-15T03:35:49.281Z,2.42
2023-01-15T03:38:37.960Z,1.92
2023-01-15T03:41:13.720Z,2.00
2023-01-15T03:44:14.988Z,2.10
2023-01-15T03:47:13.613Z,1.80
2023-01-15T03:50:01.911Z,2.30
2023-01-15T03:52:41.740Z,2.40
2023-01-15T03:55:37.523Z,2.38
2023-01-15T03:58:28.005Z,2.63
2023-01-15T04:00:59.839Z,2.10
2023-01-15T04:03:30.184Z,2.33
2023-01-15T04:05:59.092Z,2.17
2023-01-15T04:08:29.385Z,2.37
2023-01-15T04:10:59.150Z,2.65
2023-01-15T04:13:27.075Z,2.03
2023-01-15T04:15:55.400Z,2.15
2023-01-15T04:18:22.574Z,2.08
2023-01-15T04:20:50.135Z,2.25
2023-01-15T04:23:17.251Z,2.10
2023-01-15T04:25:44.061Z,2.47
2023-01-15T04:28:11.232Z,2.30
2023-01-15T04:30:38.115Z,2.50
2023-01-15T04:33:05.277Z,2.30
2023-01-15T04:35:32.147Z,1.90
2023-01-15T04:37:59.936Z,2.47
2023-01-15T04:40:46.205Z,1.90
2023-01-15T04:43:32.927Z,2.30
2023-01-15T04:45:59.794Z,2.10
2023-01-15T04:48:27.284Z,2.30
2023-01-15T04:50:54.612Z,2.40
2023-01-15T04:53:21.633Z,2.40
2023-01-15T04:55:48.591Z,2.10
2023-01-15T04:58:15.525Z,1.92
2023-01-15T05:00:42.412Z,2.10
2023-01-15T05:03:09.213Z,2.28
2023-01-15T05:05:36.055Z,2.67
2023-01-15T05:08:02.898Z,2.28
2023-01-15T05:10:29.714Z,2.58
2023-01-15T05:12:56.537Z,2.53
2023-01-15T05:15:23.365Z,2.38
2023-01-15T05:17:50.190Z,2.05
2023-01-15T05:20:17.154Z,2.38
2023-01-15T05:22:44.032Z,2.43
2023-01-15T05:25:10.911Z,2.30
2023-01-15T05:27:38.092Z,2.28
2023-01-15T05:30:05.499Z,2.45
2023-01-15T05:32:32.431Z,2.47
2023-01-15T05:34:59.297Z,2.65
2023-01-15T05:37:26.181Z,2.72
2023-01-15T05:39:53.078Z,2.80
2023-01-15T05:42:19.864Z,2.50
2023-01-15T05:44:46.950Z,2.30
2023-01-15T05:47:14.513Z,2.88
2023-01-15T05:49:41.442Z,2.65
2023-01-15T05:52:08.672Z,2.55
2023-01-15T05:54:36.669Z,2.33
2023-01-15T05:57:04.222Z,2.40
2023-01-15T05:59:33.073Z,2.50
2023-01-15T06:01:59.887Z,2.40
2023-01-15T06:04:26.755Z,2.60
2023-01-15T06:06:55.030Z,2.20
2023-01-15T06:09:23.392Z,2.47
2023-01-15T06:11:51.027Z,2.80
2023-01-15T06:14:18.281Z,2.75
2023-01-15T06:16:45.224Z,2.53
2023-01-15T06:19:13.801Z,2.70
2023-01-15T06:21:41.584Z,2.60
2023-01-15T06:24:08.915Z,2.50
2023-01-15T06:26:35.846Z,2.50
2023-01-15T06:29:02.754Z,2.63
2023-01-15T06:31:29.664Z,2.75
2023-01-15T06:33:56.684Z,2.47
2023-01-15T06:36:26.010Z,2.72
2023-01-15T06:38:53.276Z,2.73
2023-01-15T06:41:42.000Z,3.00
2023-01-15T06:44:37.511Z,2.65
2023-01-15T06:47:24.253Z,2.80
2023-01-15T06:49:57.429Z,2.53
2023-01-15T06:52:26.222Z,2.35
2023-01-15T06:54:53.647Z,2.33
2023-01-15T06:57:20.958Z,2.58
2023-01-15T06:59:48.744Z,2.47
2023-01-15T07:02:15.736Z,2.95
2023-01-15T07:04:42.588Z,3.30
2023-01-15T07:07:09.536Z,2.75
2023-01-15T07:09:37.040Z,2.63
2023-01-15T07:12:04.132Z,2.65
2023-01-15T07:14:32.234Z,3.43
2023-01-15T07:16:59.477Z,3.00
2023-01-15T07:19:27.775Z,2.88
2023-01-15T07:21:54.765Z,3.53
2023-01-15T07:24:21.659Z,3.00
2023-01-15T07:26:48.513Z,2.95
2023-01-15T07:29:15.822Z,3.10
2023-01-15T07:31:42.790Z,2.80
2023-01-15T07:34:10.206Z,3.25
2023-01-15T07:36:37.666Z,3.25
2023-01-15T07:39:09.061Z,2.90
2023-01-15T07:41:54.301Z,2.78
2023-01-15T07:44:40.501Z,2.40
2023-01-15T07:47:55.512Z,2.50
2023-01-15T07:50:24.081Z,2.28
2023-01-15T07:52:53.090Z,2.50
2023-01-15T07:55:21.112Z,2.35
2023-01-15T07:57:47.937Z,2.42
2023-01-15T08:00:20.136Z,2.70
2023-01-15T08:02:49.783Z,3.03
2023-01-15T08:05:17.815Z,2.40
2023-01-15T08:07:45.447Z,2.70
2023-01-15T08:10:13.852Z,3.15
2023-01-15T08:12:59.754Z,2.70
2023-01-15T08:15:27.339Z,2.40
2023-01-15T08:17:54.533Z,2.90
2023-01-15T08:20:26.948Z,2.80
2023-01-15T08:22:56.485Z,3.30
2023-01-15T08:25:25.432Z,3.30
2023-01-15T08:27:56.604Z,3.13
2023-01-15T08:30:34.545Z,3.30
2023-01-15T08:33:05.836Z,3.03
2023-01-15T08:35:35.470Z,2.55
2023-01-15T08:41:06.910Z,2.78
2023-01-15T08:43:36.211Z,3.03
2023-01-15T08:46:25.323Z,2.78
2023-01-15T08:48:57.793Z,2.83
2023-01-15T08:51:24.737Z,2.33
2023-01-15T08:54:12.613Z,3.25
2023-01-15T08:56:41.765Z,2.88
2023-01-15T08:59:13.032Z,3.38
2023-01-15T09:01:43.334Z,3.17
2023-01-15T09:04:14.979Z,2.97
2023-01-15T09:06:48.861Z,2.80
2023-01-15T09:09:15.917Z,2.58
2023-01-15T09:11:45.893Z,3.00
2023-01-15T09:14:57.999Z,2.75
2023-01-15T09:17:06.875Z,3.08
2023-01-15T09:19:33.904Z,2.83
2023-01-15T09:24:44.225Z,2.90
2023-01-15T09:27:14.024Z,2.55
2023-01-15T09:29:44.747Z,2.42
2023-01-15T09:32:14.603Z,2.55
2023-01-15T09:34:45.752Z,2.47
2023-01-15T09:37:31.566Z,2.67
2023-01-15T09:40:25.529Z,2.72
2023-01-15T09:43:03.220Z,2.67
2023-01-15T09:45:47.385Z,2.72
2023-01-15T09:48:37.761Z,2.88
2023-01-15T09:51:37.677Z,2.58
2023-01-15T09:54:18.473Z,2.70
2023-01-15T09:56:50.583Z,2.85
2023-01-15T09:59:50.947Z,2.60
2023-01-15T10:02:43.684Z,2.40
2023-01-15T10:05:40.398Z,2.25
2023-01-15T10:11:16.716Z,2.40
2023-01-15T10:13:58.214Z,2.60
2023-01-15T10:16:36.722Z,2.13
2023-01-15T10:19:20.261Z,2.58
2023-01-15T10:22:00.304Z,2.22
2023-01-15T10:24:37.820Z,2.50
2023-01-15T10:27:30.373Z,2.40
2023-01-15T10:30:24.810Z,2.72
2023-01-15T10:33:06.599Z,2.70
2023-01-15T10:35:38.972Z,2.70
2023-01-15T10:38:18.647Z,2.10
2023-01-15T10:41:03.422Z,2.35
2023-01-15T10:43:53.976Z,2.30
2023-01-15T10:46:44.219Z,2.40
2023-01-15T10:49:19.764Z,2.92
2023-01-15T10:51:56.730Z,2.47
2023-01-15T10:54:34.363Z,1.92
2023-01-15T10:57:22.765Z,2.45
2023-01-15T11:00:04.902Z,2.20
2023-01-15T11:02:40.430Z,2.17
2023-01-15T11:05:19.667Z,2.30
2023-01-15T11:08:45.257Z,1.83
2023-01-15T11:10:41.772Z,2.43
2023-01-15T11:13:48.929Z,2.35
2023-01-15T11:16:38.834Z,2.78
2023-01-15T11:19:38.531Z,2.63
2023-01-15T11:22:17.949Z,2.38
2023-01-15T11:25:05.001Z,2.37
2023-01-15T11:27:33.778Z,2.42
2023-01-15T11:30:09.465Z,1.92
2023-01-15T11:32:41.523Z,1.95
2023-01-15T11:35:18.790Z,2.33
2023-01-15T11:37:45.737Z,2.30
2023-01-15T11:40:32.954Z,2.00
2023-01-15T11:43:18.481Z,2.40
2023-01-15T11:46:13.435Z,2.45
2023-01-15T11:49:05.578Z,2.33
2023-01-15T11:51:52.948Z,2.28
2023-01-15T11:54:40.142Z,1.80
2023-01-15T11:57:11.063Z,2.78
2023-01-15T11:59:50.507Z,2.28
2023-01-15T12:02:59.820Z,2.50
2023-01-15T12:05:31.604Z,2.53
2023-01-15T12:08:03.763Z,2.30
2023-01-15T12:11:02.839Z,2.30
2023-01-15T12:14:03.255Z,2.17
2023-01-15T12:16:33.713Z,2.72
2023-01-15T12:19:12.589Z,2.85
2023-01-15T12:22:02.396Z,3.05
2023-01-15T12:25:06.382Z,7.78
2023-01-15T12:27:55.335Z,2.13
2023-01-15T12:30:38.808Z,2.70
2023-01-15T12:33:21.063Z,2.42
2023-01-15T12:36:08.229Z,3.00
2023-01-15T12:38:42.207Z,2.65
2023-01-15T12:41:59.698Z,2.45
2023-01-15T12:45:00.858Z,2.58
2023-01-15T12:48:00.743Z,1.92
2023-01-15T12:50:39.553Z,1.77
2023-01-15T12:53:18.107Z,2.10
2023-01-15T12:56:10.607Z,2.33
2023-01-15T12:58:52.535Z,2.42
2023-01-15T13:01:34.316Z,2.50
2023-01-15T13:04:25.783Z,2.47
2023-01-15T13:07:04.596Z,2.42
2023-01-15T13:09:46.559Z,2.08
2023-01-15T13:12:26.172Z,2.27
2023-01-15T13:14:53.167Z,2.30
2023-01-15T13:17:27.924Z,2.42
2023-01-15T13:20:03.467Z,2.40
2023-01-15T13:22:46.275Z,2.13
2023-01-15T13:25:53.138Z,2.53
2023-01-15T13:28:43.118Z,2.55
2023-01-15T13:31:30.729Z,2.15
2023-01-15T13:34:09.124Z,1.95
2023-01-15T13:36:52.667Z,2.08
2023-01-15T13:39:25.230Z,1.90
2023-01-15T13:42:13.861Z,2.25
2023-01-15T13:44:53.255Z,2.08
2023-01-15T13:47:32.626Z,1.88
2023-01-15T13:50:08.450Z,2.00
2023-01-15T13:52:37.290Z,2.35
2023-01-15T13:55:27.223Z,2.60
2023-01-15T13:57:54.237Z,2.50
2023-01-15T14:00:39.008Z,2.10
2023-01-15T14:03:45.028Z,2.00
2023-01-15T14:06:12.072Z,1.38
2023-01-15T14:08:51.981Z,1.85
2023-01-15T14:11:58.705Z,1.95
2023-01-15T14:15:04.009Z,1.58
2023-01-15T14:18:01.571Z,1.60
2023-01-15T14:20:44.741Z,1.90
2023-01-15T14:23:35.444Z,1.92
2023-01-15T14:26:11.605Z,1.90
2023-01-15T14:28:54.015Z,1.53
2023-01-15T14:31:40.118Z,1.98
2023-01-15T14:34:24.870Z,1.88
2023-01-15T14:37:07.518Z,2.08
2023-01-15T14:40:04.225Z,1.90
2023-01-15T14:42:58.931Z,1.90
2023-01-15T14:45:28.298Z,2.00
2023-01-15T14:47:57.976Z,1.95
2023-01-15T14:50:28.252Z,1.98
2023-01-15T14:53:20.303Z,2.20
2023-01-15T14:56:02.029Z,1.88
2023-01-15T14:58:55.507Z,2.38
2023-01-15T15:01:44.613Z,3.10
2023-01-15T15:04:37.385Z,2.00
2023-01-15T15:07:09.542Z,1.55
2023-01-15T15:09:50.955Z,1.80
2023-01-15T15:12:36.011Z,1.77
2023-01-15T15:15:29.343Z,2.10
2023-01-15T15:18:10.665Z,1.83
2023-01-15T15:21:06.394Z,2.15
2023-01-15T15:24:09.429Z,2.58
2023-01-15T15:26:39.307Z,2.10
2023-01-15T15:29:14.291Z,2.00
2023-01-15T15:31:48.266Z,1.98
2023-01-15T15:34:40.350Z,2.50
2023-01-15T15:37:30.988Z,2.30
2023-01-15T15:40:06.028Z,2.42
2023-01-15T15:42:58.602Z,2.70
2023-01-15T15:45:47.565Z,2.28
2023-01-15T15:48:40.976Z,1.92
2023-01-15T15:51:31.319Z,1.80
2023-01-15T15:54:16.335Z,1.80
2023-01-15T15:57:17.718Z,2.00
2023-01-15T15:59:50.875Z,2.17
2023-01-15T16:02:41.711Z,2.30
2023-01-15T16:05:25.691Z,1.90
2023-01-15T16:07:54.553Z,1.73
2023-01-15T16:10:32.782Z,2.20
2023-01-15T16:13:03.815Z,1.83
2023-01-15T16:15:38.593Z,2.10
2023-01-15T16:18:06.223Z,2.03
2023-01-15T16:20:33.929Z,2.03
2023-01-15T16:23:03.545Z,2.00
2023-01-15T16:25:35.490Z,1.95
2023-01-15T16:28:03.392Z,2.20
2023-01-15T16:30:34.457Z,1.90
2023-01-15T16:33:06.048Z,2.50
2023-01-15T16:35:37.350Z,1.92
2023-01-15T16:38:05.597Z,2.40
2023-01-15T16:40:40.858Z,2.60
2023-01-15T16:43:14.778Z,2.30
2023-01-15T16:46:02.456Z,2.78
2023-01-15T16:48:40.198Z,2.22
2023-01-15T16:51:34.646Z,2.40
2023-01-15T16:54:09.285Z,2.40
2023-01-15T16:56:38.595Z,3.00
2023-01-15T16:59:42.750Z,5.22
2023-01-15T17:02:16.305Z,11.43
2023-01-15T17:04:45.048Z,7.95
2023-01-15T17:07:24.477Z,6.60
2023-01-15T17:10:00.848Z,16.50
2023-01-15T17:12:34.516Z,17.98
2023-01-15T17:15:27.408Z,17.98
2023-01-15T17:17:55.832Z,24.67
2023-01-15T17:20:27.788Z,3.05
2023-01-15T17:22:56.102Z,13.75
2023-01-15T17:25:33.373Z,16.13
2023-01-15T17:28:01.879Z,16.52
2023-01-15T17:30:33.196Z,7.07
2023-01-15T17:33:05.399Z,6.50
2023-01-15T17:35:35.608Z,6.88
2023-01-15T17:38:02.759Z,3.92
2023-01-15T17:40:29.904Z,3.08
2023-01-15T17:42:59.197Z,3.47
2023-01-15T17:45:31.703Z,3.70
2023-01-15T17:47:58.738Z,3.70
2023-01-15T17:50:25.894Z,3.35
2023-01-15T17:52:52.905Z,3.10
2023-01-15T17:55:40.850Z,2.63
2023-01-15T17:58:30.443Z,3.30
2023-01-15T18:01:16.794Z,2.78
2023-01-15T18:04:06.969Z,3.10
2023-01-15T18:06:34.784Z,2.65
2023-01-15T18:09:05.350Z,2.38
2023-01-15T18:11:32.542Z,2.40
2023-01-15T18:13:59.620Z,2.70
2023-01-15T18:16:27.851Z,2.63
2023-01-15T18:18:54.962Z,2.35
2023-01-15T18:21:22.193Z,3.50
2023-01-15T18:23:49.429Z,2.57
2023-01-15T18:26:16.328Z,2.25
2023-01-15T18:28:45.200Z,2.50
2023-01-15T18:31:12.348Z,2.30
2023-01-15T18:33:39.239Z,2.00
2023-01-15T18:36:11.937Z,2.30
2023-01-15T18:38:40.792Z,2.00
2023-01-15T18:41:51.940Z,2.22
2023-01-15T18:44:39.439Z,2.80
2023-01-15T18:47:11.182Z,2.72
2023-01-15T18:49:39.187Z,2.00
2023-01-15T18:52:24.651Z,2.33
2023-01-15T18:54:51.799Z,2.45
2023-01-15T18:57:18.693Z,2.10
2023-01-15T18:59:47.471Z,2.40
2023-01-15T19:02:15.464Z,2.55
2023-01-15T19:04:42.390Z,2.60
2023-01-15T19:07:09.879Z,2.73
2023-01-15T19:09:37.488Z,3.30
2023-01-15T19:12:05.695Z,3.00
2023-01-15T19:14:51.873Z,2.10
2023-01-15T19:17:40.044Z,3.58
2023-01-15T19:20:10.175Z,2.45
2023-01-15T19:22:55.368Z,2.10
2023-01-15T19:25:23.360Z,3.43
2023-01-15T19:27:50.652Z,2.15
2023-01-15T19:30:17.797Z,2.22
2023-01-15T19:32:44.901Z,1.98
2023-01-15T19:35:11.841Z,2.40
2023-01-15T19:37:41.841Z,2.17
2023-01-15T19:40:18.275Z,2.25
2023-01-15T19:43:03.662Z,2.00
2023-01-15T19:45:49.350Z,2.08
2023-01-15T19:48:35.888Z,1.98
2023-01-15T19:51:02.829Z,1.80
2023-01-15T19:53:29.703Z,1.90
2023-01-15T19:55:56.553Z,1.88
2023-01-15T19:58:23.444Z,1.63
2023-01-15T20:00:52.742Z,2.07
2023-01-15T20:03:20.286Z,1.70
2023-01-15T20:05:47.466Z,1.95
2023-01-15T20:08:17.492Z,2.22
2023-01-15T20:10:49.673Z,2.97
2023-01-15T20:13:42.209Z,2.38
2023-01-15T20:16:11.427Z,1.70
2023-01-15T20:18:38.827Z,2.07
2023-01-15T20:21:06.133Z,1.80
2023-01-15T20:23:33.466Z,1.85
2023-01-15T20:26:06.440Z,1.85
2023-01-15T20:28:35.905Z,1.77
2023-01-15T20:31:03.642Z,1.80
2023-01-15T20:33:30.713Z,1.63
2023-01-15T20:36:01.264Z,1.60
2023-01-15T20:38:29.359Z,2.47
2023-01-15T20:41:16.146Z,1.90
2023-01-15T20:44:01.780Z,1.70
2023-01-15T20:46:28.634Z,1.90
2023-01-15T20:49:14.046Z,1.70
2023-01-15T20:51:40.810Z,1.73
2023-01-15T20:54:07.648Z,1.80
2023-01-15T20:56:34.450Z,2.28
2023-01-15T20:59:01.283Z,2.00
2023-01-15T21:01:29.575Z,2.10
2023-01-15T21:03:56.572Z,2.00
2023-01-15T21:06:23.628Z,23.00
2023-01-15T21:08:50.870Z,3.10
2023-01-15T21:11:18.323Z,2.17
2023-01-15T21:13:46.016Z,2.00
2023-01-15T21:16:14.678Z,1.90
2023-01-15T21:18:45.036Z,2.05
2023-01-15T21:21:14.994Z,1.77
2023-01-15T21:23:45.399Z,2.00
2023-01-15T21:26:14.254Z,3.90
2023-01-15T21:28:41.462Z,4.60
2023-01-15T21:31:09.787Z,5.95
2023-01-15T21:33:37.858Z,2.93
2023-01-15T21:36:13.188Z,4.95
2023-01-15T21:38:40.937Z,6.80
2023-01-15T21:41:14.633Z,3.83
2023-01-15T21:44:01.698Z,3.63
2023-01-15T21:46:28.645Z,4.38
2023-01-15T21:48:57.346Z,2.67
2023-01-15T21:51:26.721Z,2.50
2023-01-15T21:53:54.021Z,2.20
2023-01-15T21:56:21.127Z,2.10
2023-01-15T21:58:48.196Z,2.58
2023-01-15T22:01:18.037Z,2.40
2023-01-15T22:03:45.958Z,2.33
2023-01-15T22:06:13.372Z,1.90
2023-01-15T22:08:40.579Z,2.10
2023-01-15T22:11:09.784Z,2.10
2023-01-15T22:13:37.971Z,2.45
2023-01-15T22:16:05.129Z,2.43
2023-01-15T22:18:33.225Z,2.38
2023-01-15T22:21:02.426Z,2.30
2023-01-15T22:23:29.310Z,2.20
2023-01-15T22:25:56.134Z,2.25
2023-01-15T22:28:23.712Z,1.95
2023-01-15T22:30:50.636Z,2.25
2023-01-15T22:33:17.788Z,2.50
2023-01-15T22:35:45.051Z,2.37
2023-01-15T22:38:11.900Z,2.78
2023-01-15T22:40:38.744Z,3.10
2023-01-15T22:43:05.626Z,2.70
2023-01-15T22:45:32.454Z,2.53
2023-01-15T22:47:59.228Z,3.10
2023-01-15T22:50:26.042Z,2.92
2023-01-15T22:52:52.843Z,3.03
2023-01-15T22:55:19.647Z,2.50
2023-01-15T22:57:47.750Z,2.80
2023-01-15T23:00:15.557Z,2.97
2023-01-15T23:02:54.655Z,2.90
2023-01-15T23:05:23.377Z,2.70
2023-01-15T23:07:50.907Z,3.30
2023-01-15T23:10:17.839Z,3.00
2023-01-15T23:12:44.766Z,2.78
2023-01-15T23:15:13.482Z,2.55
2023-01-15T23:17:40.807Z,2.60
2023-01-15T23:20:09.945Z,2.50
2023-01-15T23:22:36.768Z,2.72
2023-01-15T23:25:04.000Z,2.63
2023-01-15T23:27:31.436Z,2.70
2023-01-15T23:29:58.273Z,2.40
2023-01-15T23:32:25.076Z,2.90
2023-01-15T23:34:52.032Z,2.70
2023-01-15T23:37:19.014Z,2.60
2023-01-15T23:39:45.838Z,2.65
2023-01-15T23:42:31.099Z,2.42
2023-01-15T23:45:16.657Z,2.43
2023-01-15T23:47:43.540Z,2.65
2023-01-15T23:50:10.811Z,2.60
2023-01-15T23:52:37.658Z,2.80
2023-01-15T23:55:04.684Z,2.83
2023-01-15T23:57:31.820Z,2.60
2023-01-15T23:59:58.626Z,2.22
